Terminal Aerodrome Forecast
Issued by NWS

Home | Current Version | Previous Version | Text Only | Print | Product List | Glossary On
Versions: 1 2 3 4 5 6 7 8 9 10 11 12 13 14 15 16 17 18 19
000
FTUS46 KSTO 201157
TAFMHR
TAF
KMHR 201157Z 2012/2112 14020G30KT P6SM RA OVC015
     FM202300 16025G35KT 4SM RA OVC015
      TEMPO 2103/2106 16036G46KT
      AMD NOT SKED=

USA.gov is the U.S. government's official web portal to all federal, state and local government web resources and services.